Time;durP1;ratioP1;P1;durP2;ratioP2;P2;SDS_P1;SDS_P2;PMS_P1;PMS_P2;Temp;Humidity;BMP_temperature;BMP_pressure;BME280_temperature;BME280_humidity;BME280_pressure;Samples;Min_cycle;Max_cycle;Signal;HPM_P1;HPM_P2
2022/10/11 00:01:44;;;;;;;2.78;1.40;;;;;;;9.58;83.60;102506.97;5057735;28;20102;-77
2022/10/11 00:04:09;;;;;;;1.35;1.10;;;;;;;9.56;83.29;102511.38;5044183;28;20032;-77
2022/10/11 00:06:36;;;;;;;2.22;1.27;;;;;;;9.55;83.24;102519.22;5057244;28;20071;-76
2022/10/11 00:09:03;;;;;;;2.30;1.50;;;;;;;9.54;83.36;102520.97;5059035;28;20047;-76
2022/10/11 00:11:28;;;;;;;2.33;1.27;;;;;;;9.53;83.35;102521.88;5060407;28;20255;-77
2022/10/11 00:13:54;;;;;;;1.98;1.40;;;;;;;9.52;83.49;102516.66;5060510;28;20032;-76
2022/10/11 00:16:19;;;;;;;2.90;1.60;;;;;;;9.51;83.21;102520.13;5060648;28;20347;-76
2022/10/11 00:18:45;;;;;;;1.60;1.42;;;;;;;9.49;83.37;102520.16;5073922;28;20036;-77
2022/10/11 00:21:13;;;;;;;1.92;1.48;;;;;;;9.47;83.33;102527.16;5043821;28;20033;-77
2022/10/11 00:23:39;;;;;;;2.30;1.53;;;;;;;9.45;83.38;102523.69;5060425;28;20284;-77
2022/10/11 00:26:07;;;;;;;2.17;1.35;;;;;;;9.44;83.38;102521.97;5063993;28;20083;-77
2022/10/11 00:28:33;;;;;;;3.35;2.00;;;;;;;9.43;83.34;102528.06;5064650;28;20024;-76
2022/10/11 00:30:58;;;;;;;1.60;1.50;;;;;;;9.42;83.25;102526.31;5056910;28;20017;-76
2022/10/11 00:33:24;;;;;;;2.20;1.50;;;;;;;9.40;83.28;102531.59;5057706;28;20029;-77
2022/10/11 00:35:50;;;;;;;4.03;1.67;;;;;;;9.39;83.38;102527.22;5060153;28;20040;-76
2022/10/11 00:38:16;;;;;;;2.38;1.73;;;;;;;9.37;83.28;102529.00;5059893;28;20266;-76
2022/10/11 00:40:42;;;;;;;1.98;1.77;;;;;;;9.36;83.40;102534.22;5076858;28;20079;-76
2022/10/11 00:43:16;;;;;;;1.88;1.27;;;;;;;9.35;83.40;102533.38;5077832;28;20328;-76
2022/10/11 00:45:57;;;;;;;1.80;1.45;;;;;;;9.32;83.45;102530.78;5059813;28;20036;-76
2022/10/11 00:48:35;;;;;;;1.80;1.50;;;;;;;9.32;83.47;102529.91;5059739;28;20043;-76
2022/10/11 00:51:03;;;;;;;2.80;1.63;;;;;;;9.30;83.39;102535.16;5059946;28;20040;-76
2022/10/11 00:53:31;;;;;;;1.88;1.48;;;;;;;9.28;83.38;102538.63;5077478;28;20024;-76
2022/10/11 00:56:05;;;;;;;1.50;1.40;;;;;;;9.27;83.32;102539.53;5076499;28;20027;-76
2022/10/11 00:58:34;;;;;;;4.47;2.00;;;;;;;9.26;83.38;102543.91;5059239;28;20340;-76
2022/10/11 01:04:21;;;;;;;2.85;1.75;;;;;;;9.23;83.39;102543.91;5075128;28;20065;-76
2022/10/11 01:06:48;;;;;;;1.83;1.30;;;;;;;9.21;83.55;102540.44;5065265;28;20056;-76
2022/10/11 01:09:14;;;;;;;1.60;1.30;;;;;;;9.19;83.33;102542.22;5057454;28;20029;-75
2022/10/11 01:11:41;;;;;;;3.63;1.40;;;;;;;9.17;83.41;102552.69;5057702;28;20045;-76
2022/10/11 01:14:40;;;;;;;2.40;1.50;;;;;;;9.16;83.47;102553.53;5056383;28;20352;-77
2022/10/11 01:17:28;;;;;;;1.40;1.30;;;;;;;9.13;83.34;102548.34;5073632;28;20092;-74
2022/10/11 01:20:08;;;;;;;1.17;1.05;;;;;;;9.13;83.47;102547.47;5077078;28;20032;-77
2022/10/11 01:22:45;;;;;;;1.60;1.35;;;;;;;9.10;83.41;102543.16;5057861;28;20032;-74
2022/10/11 01:25:34;;;;;;;3.45;1.42;;;;;;;9.10;83.34;102550.13;5057160;28;20325;-74
2022/10/11 01:28:17;;;;;;;2.15;1.35;;;;;;;9.07;83.49;102555.38;5039143;28;20328;-74
2022/10/11 01:30:43;;;;;;;2.33;1.38;;;;;;;9.05;83.56;102557.97;5039830;28;20104;-74
2022/10/11 01:33:24;;;;;;;1.85;1.30;;;;;;;9.04;83.52;102553.66;5055815;28;20240;-74
2022/10/11 01:36:10;;;;;;;1.40;1.20;;;;;;;9.03;83.69;102557.13;5065689;28;20032;-74
2022/10/11 01:38:58;;;;;;;2.25;1.40;;;;;;;9.00;83.53;102563.25;5058604;28;20403;-74
2022/10/11 01:41:29;;;;;;;2.28;1.73;;;;;;;8.99;83.54;102566.75;5070029;28;20070;-74
2022/10/11 01:43:59;;;;;;;2.22;1.38;;;;;;;8.98;83.83;102558.91;5055800;28;20021;-74
2022/10/11 01:46:27;;;;;;;2.90;1.40;;;;;;;8.97;83.55;102557.19;5058288;28;20039;-74
2022/10/11 01:48:56;;;;;;;3.00;1.77;;;;;;;8.95;83.61;102565.03;5058914;28;20205;-74
2022/10/11 01:51:25;;;;;;;1.67;1.23;;;;;;;8.94;83.52;102563.28;5054838;28;20095;-74
2022/10/11 01:54:00;;;;;;;2.40;1.50;;;;;;;8.93;83.76;102565.91;5057893;28;20059;-74
2022/10/11 01:57:05;;;;;;;1.75;1.27;;;;;;;8.91;83.77;102565.03;5072261;28;20036;-74
2022/10/11 02:00:02;;;;;;;1.55;1.15;;;;;;;8.91;83.72;102565.03;5056072;28;20056;-74
2022/10/11 02:02:45;;;;;;;3.25;1.70;;;;;;;8.89;83.75;102566.81;5071463;28;20111;-74
2022/10/11 02:05:18;;;;;;;1.40;1.30;;;;;;;8.87;83.93;102569.41;5055376;28;20021;-74
2022/10/11 02:07:50;;;;;;;1.83;1.25;;;;;;;8.85;83.94;102560.72;5068909;28;20032;-74
2022/10/11 02:10:43;;;;;;;1.80;1.27;;;;;;;8.82;83.78;102566.84;5058306;28;20025;-74
2022/10/11 02:13:15;;;;;;;1.55;1.30;;;;;;;8.82;84.05;102572.06;5054961;28;20036;-74
2022/10/11 02:15:43;;;;;;;1.45;1.23;;;;;;;8.80;83.78;102566.00;5056310;28;20229;-74
2022/10/11 02:18:22;;;;;;;1.58;1.48;;;;;;;8.80;83.92;102565.09;5071005;28;20028;-74
2022/10/11 02:20:47;;;;;;;;;;;;;;;8.78;83.98;102561.63;5076825;28;20062;-74
2022/10/11 02:23:19;;;;;;;3.25;1.60;;;;;;;8.77;83.93;102565.16;5061520;28;20160;-74
2022/10/11 02:25:47;;;;;;;2.08;1.20;;;;;;;8.75;83.86;102565.16;5056199;28;20024;-74
2022/10/11 02:28:16;;;;;;;2.38;1.35;;;;;;;8.73;83.76;102566.00;5069250;28;20232;-74
2022/10/11 02:30:44;;;;;;;1.20;1.10;;;;;;;8.71;84.11;102560.78;5054544;28;20078;-77
2022/10/11 02:33:13;;;;;;;2.03;1.33;;;;;;;8.69;83.80;102557.31;5068640;28;20036;-74
2022/10/11 02:35:44;;;;;;;1.73;1.33;;;;;;;8.68;83.72;102558.22;5057813;28;20024;-74
2022/10/11 02:38:18;;;;;;;2.17;1.25;;;;;;;8.67;83.76;102559.06;5054559;28;20028;-74
2022/10/11 02:40:46;;;;;;;5.00;1.23;;;;;;;8.65;83.66;102561.69;5054544;28;20086;-74
2022/10/11 02:43:27;;;;;;;;;;;;;;;8.64;83.83;102559.97;5057986;28;20032;-77
2022/10/11 02:46:00;;;;;;;1.05;0.90;;;;;;;8.62;83.87;102561.72;5076185;28;19912;-74
2022/10/11 02:48:28;;;;;;;1.25;1.00;;;;;;;8.60;83.79;102562.59;5021056;28;20304;-74
2022/10/11 02:50:55;;;;;;;1.60;1.20;;;;;;;8.59;83.97;102564.34;5055043;28;20361;-73
2022/10/11 02:53:22;;;;;;;1.52;1.08;;;;;;;8.58;84.11;102561.75;5063375;28;20044;-72
2022/10/11 02:55:48;;;;;;;1.30;1.00;;;;;;;8.57;84.00;102558.28;5054789;28;20378;-72
2022/10/11 02:58:14;;;;;;;1.80;1.05;;;;;;;8.57;84.13;102562.63;5065609;28;20032;-72
2022/10/11 03:00:39;;;;;;;1.10;1.00;;;;;;;8.56;84.27;102572.19;5041401;28;20036;-74
2022/10/11 03:03:05;;;;;;;1.38;0.93;;;;;;;8.56;84.57;102572.19;5054368;28;20037;-74
2022/10/11 03:05:35;;;;;;;1.60;1.05;;;;;;;8.57;84.86;102573.06;5069883;28;20042;-74
2022/10/11 03:08:01;;;;;;;3.97;1.10;;;;;;;8.55;84.97;102578.31;5068598;28;20114;-77
2022/10/11 03:10:27;;;;;;;1.33;1.00;;;;;;;8.56;85.16;102580.03;5053978;28;20024;-74
2022/10/11 03:12:52;;;;;;;1.33;0.95;;;;;;;8.55;85.09;102569.59;5059998;28;20024;-74
2022/10/11 03:15:17;;;;;;;1.05;0.95;;;;;;;8.55;85.53;102574.81;5075156;28;20069;-74
2022/10/11 03:17:43;;;;;;;1.25;1.00;;;;;;;8.52;85.30;102573.09;5071489;28;20044;-74
2022/10/11 03:20:08;;;;;;;1.58;1.00;;;;;;;8.52;85.49;102580.06;5054388;28;20044;-74
2022/10/11 03:22:34;;;;;;;1.40;0.80;;;;;;;8.52;85.19;102578.31;5055764;28;20040;-74
2022/10/11 03:24:59;;;;;;;2.58;1.27;;;;;;;8.50;85.47;102571.38;5040985;28;20028;-74
2022/10/11 03:27:25;;;;;;;2.65;1.17;;;;;;;8.49;85.61;102573.09;5056855;28;20021;-74
2022/10/11 03:29:50;;;;;;;1.77;1.10;;;;;;;8.49;85.88;102585.28;5053908;28;20028;-76
2022/10/11 03:32:15;;;;;;;2.05;1.00;;;;;;;8.49;85.68;102577.44;5054955;28;20043;-74
2022/10/11 03:34:41;;;;;;;2.05;1.05;;;;;;;8.48;85.75;102581.81;5057217;28;20025;-74
2022/10/11 03:37:06;;;;;;;1.15;0.95;;;;;;;8.46;85.83;102583.56;5075438;28;20354;-74
2022/10/11 03:39:32;;;;;;;1.70;1.25;;;;;;;8.45;85.64;102590.50;5055945;28;20348;-74
2022/10/11 03:41:57;;;;;;;2.03;0.93;;;;;;;8.45;85.93;102589.66;5057500;28;20036;-74
2022/10/11 03:44:23;;;;;;;1.10;1.00;;;;;;;8.43;85.99;102584.44;5045656;28;20021;-74
2022/10/11 03:46:48;;;;;;;3.05;1.15;;;;;;;8.42;86.10;102587.03;5055197;28;20303;-74
2022/10/11 03:49:13;;;;;;;6.20;1.23;;;;;;;8.41;86.01;102587.91;5048385;28;20025;-74
2022/10/11 03:51:39;;;;;;;2.60;1.08;;;;;;;8.39;86.04;102589.66;5073637;28;20039;-74
2022/10/11 03:54:04;;;;;;;1.73;1.02;;;;;;;8.40;86.01;102583.53;5064155;28;20025;-77
2022/10/11 03:56:29;;;;;;;2.10;1.15;;;;;;;8.38;86.17;102583.53;5054750;28;20058;-76
2022/10/11 03:58:55;;;;;;;1.77;1.00;;;;;;;8.39;86.19;102581.81;5056814;28;20058;-76
2022/10/11 04:01:20;;;;;;;1.92;1.40;;;;;;;8.37;86.40;102594.00;5074568;28;20039;-76
2022/10/11 04:03:46;;;;;;;2.35;0.85;;;;;;;8.36;86.29;102587.03;5051353;28;20328;-76
2022/10/11 04:06:11;;;;;;;1.70;0.95;;;;;;;8.35;86.43;102590.50;5053692;28;20315;-76
2022/10/11 04:08:36;;;;;;;3.08;1.27;;;;;;;8.33;86.49;102587.94;5036738;28;20029;-76
2022/10/11 04:11:02;;;;;;;2.42;1.30;;;;;;;8.33;86.44;102584.44;5053689;28;20040;-76
2022/10/11 04:13:27;;;;;;;2.65;1.08;;;;;;;8.33;86.47;102597.47;5056106;28;20041;-76
2022/10/11 04:15:53;;;;;;;1.88;1.10;;;;;;;8.32;86.54;102598.38;5056925;28;20040;-76
2022/10/11 04:18:18;;;;;;;2.75;1.42;;;;;;;8.31;86.52;102599.22;5077942;28;20320;-76
2022/10/11 04:20:44;;;;;;;3.03;1.20;;;;;;;8.29;86.43;102598.38;5057260;28;20064;-76
2022/10/11 04:23:09;;;;;;;1.77;1.17;;;;;;;8.29;86.40;102609.69;5060637;28;20032;-76
2022/10/11 04:25:37;;;;;;;1.67;1.15;;;;;;;8.29;86.46;102609.69;5058714;28;20107;-76
2022/10/11 04:28:03;;;;;;;1.55;1.00;;;;;;;8.28;86.47;102610.56;5040486;28;20247;-77
2022/10/11 04:30:29;;;;;;;1.10;0.90;;;;;;;8.27;86.52;102614.03;5039155;28;20032;-76
2022/10/11 04:32:54;;;;;;;2.60;1.08;;;;;;;8.26;86.59;102605.34;5078250;28;20041;-77
2022/10/11 04:35:20;;;;;;;1.63;1.33;;;;;;;8.25;86.62;102600.97;5059561;28;20028;-77
2022/10/11 04:37:45;;;;;;;1.15;0.85;;;;;;;8.25;86.72;102615.78;5060072;28;20060;-76
2022/10/11 04:40:11;;;;;;;3.63;1.20;;;;;;;8.23;86.59;102610.56;5059359;28;20243;-76
2022/10/11 04:42:36;;;;;;;0.80;0.70;;;;;;;8.23;86.93;102618.41;5078145;28;20036;-77
2022/10/11 04:45:02;;;;;;;1.50;0.90;;;;;;;8.23;86.83;102615.78;5026520;28;20040;-76
2022/10/11 04:47:28;;;;;;;1.30;0.85;;;;;;;8.23;86.62;102614.94;5059570;28;20028;-76
2022/10/11 04:49:53;;;;;;;0.82;0.80;;;;;;;8.22;86.76;102619.28;5060117;28;20035;-76
2022/10/11 04:52:18;;;;;;;1.80;1.10;;;;;;;8.21;86.87;102616.69;5059613;28;20348;-77
2022/10/11 04:54:44;;;;;;;3.33;0.95;;;;;;;8.20;86.60;102617.53;5077710;28;20107;-76
2022/10/11 04:57:09;;;;;;;2.53;1.23;;;;;;;8.20;86.63;102612.31;5077863;28;20081;-76
2022/10/11 04:59:34;;;;;;;1.02;0.93;;;;;;;8.20;86.78;102617.53;5073068;28;20281;-76
2022/10/11 05:02:00;;;;;;;1.13;1.02;;;;;;;8.19;86.73;102618.44;5057887;28;20032;-76
2022/10/11 05:04:25;;;;;;;1.95;0.85;;;;;;;8.19;86.59;102627.13;5023370;28;20068;-76
2022/10/11 05:06:51;;;;;;;1.90;1.13;;;;;;;8.16;86.79;102616.66;5057646;28;20390;-78
2022/10/11 05:09:16;;;;;;;1.95;1.33;;;;;;;8.17;86.93;102626.25;5040034;28;20099;-76
2022/10/11 05:11:42;;;;;;;1.25;1.10;;;;;;;8.15;86.87;102616.66;5059823;28;20108;-75
2022/10/11 05:14:07;;;;;;;1.58;1.23;;;;;;;8.15;86.78;102622.78;5077670;28;20032;-75
2022/10/11 05:16:33;;;;;;;0.98;0.90;;;;;;;8.14;86.79;102628.84;5055682;28;20068;-76
2022/10/11 05:18:58;;;;;;;2.08;1.10;;;;;;;8.14;86.83;102631.47;5057529;28;20193;-75
2022/10/11 05:21:26;;;;;;;1.45;0.90;;;;;;;8.14;86.87;102634.06;5057163;28;20308;-75
2022/10/11 05:23:54;;;;;;;3.38;1.10;;;;;;;8.14;86.79;102634.06;5056410;28;20224;-75
2022/10/11 05:26:20;;;;;;;1.67;1.10;;;;;;;8.13;87.01;102627.13;5072263;28;20040;-75
2022/10/11 05:28:46;;;;;;;1.42;0.90;;;;;;;8.15;86.95;102634.94;5075878;28;20428;-75
2022/10/11 05:31:12;;;;;;;2.53;1.30;;;;;;;8.15;86.99;102642.78;5061851;28;20040;-76
2022/10/11 05:33:37;;;;;;;1.50;1.17;;;;;;;8.15;87.16;102641.06;5039025;28;20342;-75
2022/10/11 05:36:04;;;;;;;1.35;1.00;;;;;;;8.15;87.08;102641.06;5051406;28;20052;-75
2022/10/11 05:38:29;;;;;;;3.00;0.95;;;;;;;8.15;87.25;102641.06;5056419;28;20037;-75
2022/10/11 05:40:58;;;;;;;1.40;1.30;;;;;;;8.15;87.35;102646.28;5038479;28;20056;-75
2022/10/11 05:43:24;;;;;;;1.60;1.00;;;;;;;8.15;87.26;102646.28;5055591;28;20115;-77
2022/10/11 05:45:49;;;;;;;3.53;1.17;;;;;;;8.16;87.53;102655.81;5033164;28;20028;-75
2022/10/11 05:48:15;;;;;;;1.67;1.10;;;;;;;8.16;87.74;102650.59;5047246;28;20239;-77
2022/10/11 05:50:40;;;;;;;1.23;1.05;;;;;;;8.16;87.65;102655.81;5065549;28;20035;-75
2022/10/11 05:53:06;;;;;;;1.30;1.20;;;;;;;8.17;87.42;102659.31;5065092;28;20216;-75
2022/10/11 05:55:36;;;;;;;1.27;1.10;;;;;;;8.16;87.61;102654.97;5047061;28;20398;-75
2022/10/11 05:58:01;;;;;;;1.77;1.15;;;;;;;8.16;87.67;102657.56;5046860;28;20025;-75
2022/10/11 06:00:27;;;;;;;2.25;1.02;;;;;;;8.16;87.64;102663.66;5044632;28;20034;-75
2022/10/11 06:02:52;;;;;;;3.33;1.40;;;;;;;8.17;87.81;102661.94;5065079;28;20024;-75
2022/10/11 06:05:17;;;;;;;2.90;1.40;;;;;;;8.16;88.03;102661.03;5045795;28;20025;-75
2022/10/11 06:07:43;;;;;;;1.83;1.10;;;;;;;8.17;88.03;102669.75;5068061;28;20114;-75
2022/10/11 06:10:09;;;;;;;3.58;1.80;;;;;;;8.16;87.80;102670.63;5072481;28;20237;-75
2022/10/11 06:12:35;;;;;;;4.93;1.85;;;;;;;8.16;88.08;102676.69;5076711;28;20039;-75
2022/10/11 06:15:01;;;;;;;2.65;1.50;;;;;;;8.16;87.93;102675.84;5088101;28;20035;-75
2022/10/11 06:17:26;;;;;;;3.78;1.67;;;;;;;8.15;88.07;102669.75;5066131;28;20036;-75
2022/10/11 06:19:52;;;;;;;7.28;2.58;;;;;;;8.15;88.01;102671.47;5074932;28;20036;-75
2022/10/11 06:22:17;;;;;;;2.75;1.65;;;;;;;8.14;88.17;102678.44;5052325;28;20060;-75
2022/10/11 06:24:43;;;;;;;3.15;2.10;;;;;;;8.15;88.21;102682.81;5055729;28;20036;-75
2022/10/11 06:27:08;;;;;;;3.08;2.30;;;;;;;8.15;88.22;102677.59;5073775;28;20043;-75
2022/10/11 06:29:35;;;;;;;3.72;2.55;;;;;;;8.15;88.07;102679.31;5072768;28;20020;-75
2022/10/11 06:32:01;;;;;;;7.43;4.15;;;;;;;8.16;88.30;102681.06;5061738;28;20045;-75
2022/10/11 06:34:26;;;;;;;4.10;3.05;;;;;;;8.14;88.38;102678.44;5052058;28;20063;-75
2022/10/11 06:36:52;;;;;;;5.32;3.72;;;;;;;8.14;88.70;102686.28;5064376;28;20040;-75
2022/10/11 06:39:17;;;;;;;10.65;4.78;;;;;;;8.15;88.62;102690.63;5054358;28;20274;-75
2022/10/11 06:41:43;;;;;;;8.82;4.15;;;;;;;8.16;88.64;102688.88;5064835;28;20043;-75
2022/10/11 06:44:13;;;;;;;12.88;5.22;;;;;;;8.16;88.78;102699.31;5051858;28;20033;-75
2022/10/11 06:46:38;;;;;;;5.82;4.35;;;;;;;8.15;88.70;102690.63;5060124;28;20043;-75
2022/10/11 06:49:04;;;;;;;8.85;4.22;;;;;;;8.16;89.01;102700.19;5053022;28;20240;-75
2022/10/11 06:51:30;;;;;;;7.50;4.20;;;;;;;8.17;89.09;102696.72;5058454;28;20039;-75
2022/10/11 06:53:58;;;;;;;5.82;3.58;;;;;;;8.18;89.07;102698.44;5073587;28;20044;-75
2022/10/11 06:56:26;;;;;;;4.47;3.53;;;;;;;8.19;89.15;102701.94;5069505;28;20036;-75
2022/10/11 06:58:56;;;;;;;6.03;3.63;;;;;;;8.20;89.21;102706.28;5052689;28;20033;-75
2022/10/11 07:01:25;;;;;;;3.83;3.22;;;;;;;8.20;89.24;102704.53;5054940;28;20114;-75
2022/10/11 07:03:53;;;;;;;4.60;3.50;;;;;;;8.22;89.39;102714.97;5056233;28;20066;-75
2022/10/11 07:06:21;;;;;;;3.53;3.22;;;;;;;8.21;89.71;102711.50;5071569;28;20430;-75
2022/10/11 07:08:47;;;;;;;3.58;2.75;;;;;;;8.23;89.52;102714.13;5053494;28;20025;-75
2022/10/11 07:11:15;;;;;;;5.03;2.67;;;;;;;8.24;89.97;102721.94;5051907;28;20052;-75
2022/10/11 07:13:40;;;;;;;4.67;2.70;;;;;;;8.24;90.16;102721.94;5073707;28;20050;-75
2022/10/11 07:16:11;;;;;;;4.75;2.78;;;;;;;8.26;90.07;102721.94;5052685;28;20033;-75
2022/10/11 07:18:37;;;;;;;3.92;2.83;;;;;;;8.29;90.10;102721.06;5072786;28;20035;-75
2022/10/11 07:21:05;;;;;;;7.38;3.30;;;;;;;8.29;90.42;102721.94;5063798;28;20372;-76
2022/10/11 07:23:31;;;;;;;3.20;2.65;;;;;;;8.30;90.40;102718.47;5053537;28;20216;-75
2022/10/11 07:25:57;;;;;;;6.82;2.97;;;;;;;8.32;90.74;102727.16;5053582;28;20146;-75
2022/10/11 07:28:24;;;;;;;3.75;2.72;;;;;;;8.33;90.53;102723.69;5070458;28;20033;-75
2022/10/11 07:30:49;;;;;;;9.05;3.13;;;;;;;8.36;90.74;102722.81;5036498;28;20264;-76
2022/10/11 07:33:15;;;;;;;8.15;3.00;;;;;;;8.37;91.11;102725.41;5057181;28;20040;-76
2022/10/11 07:35:41;;;;;;;5.30;2.92;;;;;;;8.39;91.03;102728.03;5067661;28;20033;-76
2022/10/11 07:38:07;;;;;;;6.50;3.00;;;;;;;8.40;91.05;102733.25;5054037;28;20036;-76
2022/10/11 07:40:39;;;;;;;4.03;2.97;;;;;;;8.41;91.43;102729.75;5053519;28;20050;-76
2022/10/11 07:43:04;;;;;;;3.47;2.40;;;;;;;8.44;91.47;102731.50;5060900;28;20037;-75
2022/10/11 07:45:30;;;;;;;5.45;3.13;;;;;;;8.47;91.54;102741.97;5050447;28;20082;-76
2022/10/11 07:47:55;;;;;;;7.40;3.53;;;;;;;8.48;91.58;102738.50;5057483;28;20096;-76
2022/10/11 07:50:21;;;;;;;5.03;3.25;;;;;;;8.51;91.88;102735.84;5023824;28;20254;-76
2022/10/11 07:52:46;;;;;;;7.97;2.80;;;;;;;8.55;91.94;102736.72;5055747;28;20029;-75
2022/10/11 07:55:12;;;;;;;4.40;2.95;;;;;;;8.57;92.09;102746.31;5053384;28;20059;-75
2022/10/11 07:57:37;;;;;;;8.90;3.42;;;;;;;8.60;92.50;102740.19;5072899;28;20127;-76
2022/10/11 08:00:06;;;;;;;3.95;2.60;;;;;;;8.62;92.68;102739.34;5037373;28;20039;-76
2022/10/11 08:02:31;;;;;;;5.65;3.05;;;;;;;8.66;93.25;102745.41;5037769;28;20503;-76
2022/10/11 08:04:57;;;;;;;14.07;3.80;;;;;;;8.70;93.95;102754.13;5056294;28;20035;-75
2022/10/11 08:07:22;;;;;;;14.82;3.00;;;;;;;8.73;94.55;102747.16;5070055;28;20032;-75
2022/10/11 08:09:47;;;;;;;5.32;2.83;;;;;;;8.76;94.87;102751.47;5076239;28;20025;-75
2022/10/11 08:12:13;;;;;;;4.30;2.47;;;;;;;8.78;94.82;102750.59;5056962;28;20387;-75
2022/10/11 08:14:40;;;;;;;7.85;2.63;;;;;;;8.80;94.73;102751.50;5076919;28;20036;-75
2022/10/11 08:17:06;;;;;;;8.90;2.42;;;;;;;8.84;94.59;102757.53;5057822;28;20036;-75
2022/10/11 08:19:32;;;;;;;19.48;2.63;;;;;;;8.87;94.71;102756.69;5074679;28;20324;-75
2022/10/11 08:21:57;;;;;;;7.93;2.25;;;;;;;8.89;94.40;102763.63;5058432;28;20347;-75
2022/10/11 08:24:24;;;;;;;13.07;2.72;;;;;;;8.92;94.42;102760.16;5063154;28;20071;-75
2022/10/11 08:26:50;;;;;;;8.65;3.15;;;;;;;8.96;94.90;102767.09;5080402;28;20036;-75
2022/10/11 08:29:15;;;;;;;7.88;2.53;;;;;;;8.98;95.42;102768.81;5060017;28;20046;-75
2022/10/11 08:31:41;;;;;;;11.63;3.05;;;;;;;8.99;94.58;102762.75;5058475;28;20041;-75
2022/10/11 08:34:06;;;;;;;8.93;2.38;;;;;;;9.02;94.38;102767.97;5072310;28;20039;-75
2022/10/11 08:36:32;;;;;;;5.97;2.10;;;;;;;9.06;94.80;102767.94;5076121;28;20069;-75
2022/10/11 08:38:57;;;;;;;10.07;2.15;;;;;;;9.08;94.30;102772.28;5066692;28;20036;-75
2022/10/11 08:41:46;;;;;;;6.13;1.85;;;;;;;9.11;94.05;102774.88;5053997;28;20048;-75
2022/10/11 08:44:30;;;;;;;6.47;1.98;;;;;;;9.15;93.71;102775.75;5076956;28;20036;-75
2022/10/11 08:47:01;;;;;;;6.32;2.03;;;;;;;9.18;93.72;102784.44;5076732;28;20044;-75
2022/10/11 08:49:30;;;;;;;5.20;1.92;;;;;;;9.20;93.49;102781.81;5079349;28;20060;-75
2022/10/11 08:52:01;;;;;;;10.73;2.42;;;;;;;9.23;93.64;102781.81;5079803;28;20095;-74
2022/10/11 08:54:52;;;;;;;9.43;2.25;;;;;;;9.28;93.76;102779.16;5061302;28;20391;-74
2022/10/11 08:57:21;;;;;;;14.20;2.40;;;;;;;9.30;93.86;102785.28;5078974;28;20072;-74
2022/10/11 09:00:01;;;;;;;6.32;1.80;;;;;;;9.33;93.27;102785.25;5062295;28;20042;-77
2022/10/11 09:02:34;;;;;;;6.63;1.77;;;;;;;9.36;92.82;102786.09;5084744;28;20070;-74
2022/10/11 09:05:01;;;;;;;17.73;2.30;;;;;;;9.38;92.30;102784.34;5059672;28;20204;-76
2022/10/11 09:07:52;;;;;;;12.27;2.20;;;;;;;9.43;92.52;102778.25;5060062;28;20352;-74
2022/10/11 09:10:54;;;;;;;9.45;1.65;;;;;;;9.47;92.74;102787.81;5077723;28;20390;-74
2022/10/11 09:14:01;;;;;;;13.05;2.00;;;;;;;9.51;91.85;102793.00;5079439;28;20031;-77
2022/10/11 09:16:45;;;;;;;6.53;1.60;;;;;;;9.55;91.44;102789.53;5073484;28;20033;-76
2022/10/11 09:19:16;;;;;;;3.22;1.38;;;;;;;9.59;90.94;102793.00;5072040;28;20074;-74
2022/10/11 09:21:55;;;;;;;7.85;1.48;;;;;;;9.61;89.87;102792.09;5078564;28;20020;-77
2022/10/11 09:27:00;;;;;;;9.55;1.92;;;;;;;9.68;89.88;102782.47;5090473;28;20051;-88
2022/10/11 09:29:36;;;;;;;14.50;2.38;;;;;;;9.75;90.45;102786.78;5103924;28;20107;-86
2022/10/11 09:32:14;;;;;;;6.25;1.80;;;;;;;9.79;90.56;102785.88;5096978;28;20067;-86
2022/10/11 09:34:39;;;;;;;6.35;1.63;;;;;;;9.83;90.65;102791.13;5103495;28;20035;-86
2022/10/11 09:37:18;;;;;;;10.75;2.03;;;;;;;9.88;90.19;102794.56;5079391;28;20036;-86
2022/10/11 09:39:56;;;;;;;;;;;;;;;9.93;90.21;102790.16;5097134;28;20056;-86
2022/10/11 09:42:21;;;;;;;8.10;1.60;;;;;;;9.97;90.18;102795.38;5101464;28;19943;-86
2022/10/11 09:44:48;;;;;;;10.57;1.83;;;;;;;10.00;89.60;102794.47;5106198;28;20038;-86
2022/10/11 09:47:16;;;;;;;13.23;1.60;;;;;;;10.04;88.86;102803.16;5107072;28;20066;-86
2022/10/11 09:50:12;;;;;;;4.95;1.27;;;;;;;10.05;87.99;102794.44;5084774;28;20024;-86
2022/10/11 09:52:47;;;;;;;7.03;1.33;;;;;;;10.12;87.95;102801.38;5109007;28;20049;-86
2022/10/11 09:55:38;;;;;;;10.85;1.77;;;;;;;10.18;88.21;102798.69;5084368;28;20268;-86
2022/10/11 09:58:05;;;;;;;8.02;1.92;;;;;;;10.24;88.23;102805.63;5104623;28;20042;-86
2022/10/11 10:00:32;;;;;;;7.57;1.80;;;;;;;10.30;88.64;102789.91;5094994;28;20054;-86
2022/10/11 10:03:02;;;;;;;15.60;2.30;;;;;;;10.38;88.83;102795.94;5111053;28;20035;-86
2022/10/11 10:05:34;;;;;;;10.07;1.85;;;;;;;10.44;88.68;102792.41;5094732;28;20059;-86
2022/10/11 10:08:08;;;;;;;11.95;1.63;;;;;;;10.50;88.19;102793.22;5094620;28;20375;-86
2022/10/11 10:10:51;;;;;;;16.90;1.83;;;;;;;10.55;87.86;102799.31;5078322;28;20044;-86
2022/10/11 10:13:22;;;;;;;9.70;1.42;;;;;;;10.59;86.28;102797.53;5098212;28;20053;-86
2022/10/11 10:15:52;;;;;;;6.53;1.70;;;;;;;10.64;85.54;102797.47;5077846;28;20028;-86
2022/10/11 10:18:31;;;;;;;6.75;1.88;;;;;;;10.69;86.54;102793.06;5090640;28;20038;-86
2022/10/11 10:20:58;;;;;;;10.32;1.85;;;;;;;10.74;85.71;102796.50;5088689;28;20051;-86
2022/10/11 10:23:30;;;;;;;15.40;1.80;;;;;;;10.78;84.81;102792.09;5093537;28;20034;-86
2022/10/11 10:26:31;;;;;;;9.77;1.52;;;;;;;10.83;84.71;102791.16;5093628;28;20334;-86
2022/10/11 10:29:09;;;;;;;17.83;1.98;;;;;;;10.90;85.40;102787.59;4981738;28;20037;-86
2022/10/11 10:31:36;;;;;;;7.28;1.20;;;;;;;10.94;85.21;102780.56;5067663;28;20040;-86
2022/10/11 10:34:08;;;;;;;5.00;1.27;;;;;;;10.97;82.72;102784.88;5059582;28;20311;-86
2022/10/11 10:36:37;;;;;;;13.20;1.90;;;;;;;11.00;83.22;102792.72;5076724;28;20219;-86
2022/10/11 10:39:43;;;;;;;10.38;1.70;;;;;;;11.02;83.12;102793.56;5081426;28;20037;-86
2022/10/11 10:42:15;;;;;;;7.32;1.10;;;;;;;11.02;83.59;102794.44;5077836;28;20061;-86
2022/10/11 10:44:42;;;;;;;6.47;2.00;;;;;;;11.01;83.52;102790.09;5076356;28;20036;-86
2022/10/11 10:47:23;;;;;;;8.63;1.35;;;;;;;11.02;83.77;102790.94;5034238;28;20028;-86
2022/10/11 10:50:02;;;;;;;8.23;2.08;;;;;;;11.02;83.63;102786.56;5052920;28;20043;-86
2022/10/11 10:52:51;;;;;;;9.68;2.10;;;;;;;11.02;83.92;102786.56;5060559;28;20538;-86
2022/10/11 10:55:41;;;;;;;5.20;1.25;;;;;;;11.04;84.18;102791.81;5066737;28;20369;-86
2022/10/11 10:58:29;;;;;;;6.78;1.33;;;;;;;11.06;84.41;102779.53;5059920;28;20258;-86
2022/10/11 11:01:04;;;;;;;3.70;1.20;;;;;;;11.06;84.71;102783.06;5044649;28;20017;-86
2022/10/11 11:03:41;;;;;;;6.10;1.35;;;;;;;11.07;84.62;102781.28;5077348;28;20059;-86
2022/10/11 11:06:11;;;;;;;12.65;2.45;;;;;;;11.07;84.62;102773.41;5079238;28;20032;-86
2022/10/11 11:08:59;;;;;;;7.43;1.40;;;;;;;11.09;84.56;102782.13;5059967;28;20098;-86
2022/10/11 11:11:40;;;;;;;13.45;1.55;;;;;;;11.08;84.72;102790.91;5081208;28;20025;-86
2022/10/11 11:14:33;;;;;;;10.68;1.83;;;;;;;11.10;84.79;102783.88;5072825;28;20040;-86
2022/10/11 11:17:35;;;;;;;8.95;1.42;;;;;;;11.11;85.06;102782.97;5068297;28;20346;-86
2022/10/11 11:20:29;;;;;;;4.13;1.45;;;;;;;11.11;84.71;102781.25;5062028;28;20385;-86
2022/10/11 11:22:54;;;;;;;4.60;1.15;;;;;;;11.11;84.51;102776.00;5073473;28;20040;-86
2022/10/11 11:25:30;;;;;;;12.32;1.95;;;;;;;11.13;85.30;102766.34;5046035;28;20067;-86
2022/10/11 11:27:58;;;;;;;6.35;1.63;;;;;;;11.16;85.28;102773.31;5080257;28;20035;-86
2022/10/11 11:30:51;;;;;;;5.90;1.13;;;;;;;11.19;84.90;102768.03;5061471;28;20032;-86
2022/10/11 11:33:41;;;;;;;10.75;1.27;;;;;;;11.22;83.72;102775.84;5077575;28;20274;-86
2022/10/11 11:36:14;;;;;;;7.70;1.38;;;;;;;11.27;84.25;102765.31;5080271;28;20040;-86
2022/10/11 11:38:46;;;;;;;11.63;1.98;;;;;;;11.28;84.38;102770.53;5079213;28;20357;-86
2022/10/11 11:41:22;;;;;;;8.77;1.33;;;;;;;11.34;84.26;102767.81;5086540;28;20044;-86
2022/10/11 11:43:54;;;;;;;11.30;1.35;;;;;;;11.38;83.68;102770.41;5071744;28;20040;-86
2022/10/11 11:46:29;;;;;;;13.05;1.95;;;;;;;11.41;83.13;102768.63;5069184;28;20315;-86
2022/10/11 11:48:58;;;;;;;11.73;1.42;;;;;;;11.42;82.52;102757.22;5045637;28;20036;-86
2022/10/11 11:51:34;;;;;;;11.77;2.42;;;;;;;11.48;83.70;102764.16;5060268;28;20028;-86
2022/10/11 11:54:18;;;;;;;5.80;1.42;;;;;;;11.49;82.62;102756.25;5082110;28;20086;-86